createdAt,value
2022-08-07T00:13:57.347Z,100.00
2022-08-07T00:46:09.364Z,100.00
2022-08-07T00:56:44.859Z,100.00
2022-08-07T01:00:00.026Z,100.00
2022-08-07T01:03:12.754Z,100.00
2022-08-07T01:06:24.818Z,100.00
2022-08-07T01:10:06.668Z,100.00
2022-08-07T01:13:00.295Z,100.00
2022-08-07T01:20:05.600Z,100.00
2022-08-07T01:27:20.699Z,100.00
2022-08-07T01:30:35.788Z,100.00
2022-08-07T01:41:12.681Z,100.00
2022-08-07T01:44:27.363Z,100.00
2022-08-07T01:54:41.531Z,100.00
2022-08-07T01:58:29.463Z,100.00
2022-08-07T02:01:59.897Z,100.00
2022-08-07T02:04:56.660Z,100.00
2022-08-07T02:08:13.979Z,100.00
2022-08-07T02:11:51.178Z,100.00
2022-08-07T02:14:58.235Z,100.00
2022-08-07T02:18:20.583Z,100.00
2022-08-07T02:25:18.475Z,100.00
2022-08-07T02:32:38.627Z,100.00
2022-08-07T02:36:30.917Z,100.00
2022-08-07T02:53:51.278Z,100.00
2022-08-07T02:57:22.257Z,100.00
2022-08-07T03:04:19.112Z,100.00
2022-08-07T03:11:51.596Z,100.00
2022-08-07T03:18:36.620Z,100.00
2022-08-07T03:41:47.652Z,100.00
2022-08-07T03:45:01.479Z,100.00
2022-08-07T03:48:15.103Z,100.00
2022-08-07T03:51:47.099Z,100.00
2022-08-07T03:55:06.763Z,100.00
2022-08-07T04:02:02.843Z,100.00
2022-08-07T04:09:15.210Z,100.00
2022-08-07T04:12:28.931Z,100.00
2022-08-07T04:15:39.105Z,100.00
2022-08-07T04:19:04.280Z,100.00
2022-08-07T04:22:29.253Z,100.00
2022-08-07T04:25:42.318Z,100.00
2022-08-07T04:29:10.808Z,100.00
2022-08-07T04:32:34.255Z,100.00
2022-08-07T04:35:54.727Z,100.00
2022-08-07T04:39:19.987Z,100.00
2022-08-07T04:51:04.001Z,100.00
2022-08-07T04:54:32.329Z,100.00
2022-08-07T04:58:12.325Z,100.00
2022-08-07T05:01:30.903Z,100.00
2022-08-07T05:04:50.598Z,100.00
2022-08-07T05:08:17.342Z,100.00
2022-08-07T05:11:58.415Z,100.00
2022-08-07T05:15:23.564Z,100.00
2022-08-07T05:18:40.742Z,100.00
2022-08-07T05:22:00.549Z,100.00
2022-08-07T05:25:25.706Z,100.00
2022-08-07T05:28:29.801Z,100.00
2022-08-07T05:31:51.167Z,100.00
2022-08-07T05:38:59.608Z,100.00
2022-08-07T05:42:08.758Z,100.00
2022-08-07T05:45:46.432Z,100.00
2022-08-07T05:48:58.413Z,100.00
2022-08-07T05:52:05.700Z,100.00
2022-08-07T05:56:01.872Z,100.00
2022-08-07T05:58:52.863Z,100.00
2022-08-07T06:02:04.859Z,100.00
2022-08-07T06:05:31.327Z,100.00
2022-08-07T06:08:49.531Z,100.00
2022-08-07T06:12:03.657Z,100.00
2022-08-07T06:15:42.529Z,100.00
2022-08-07T06:18:43.335Z,100.00
2022-08-07T06:22:15.896Z,100.00
2022-08-07T06:25:25.314Z,100.00
2022-08-07T06:28:46.034Z,100.00
2022-08-07T06:32:07.336Z,100.00
2022-08-07T06:35:21.487Z,100.00
2022-08-07T06:38:51.347Z,100.00
2022-08-07T06:42:35.727Z,100.00
2022-08-07T06:46:00.155Z,100.00
2022-08-07T06:49:22.688Z,100.00
2022-08-07T06:52:40.874Z,100.00
2022-08-07T06:56:04.669Z,100.00
2022-08-07T07:00:14.349Z,100.00
2022-08-07T07:02:54.003Z,100.00
2022-08-07T07:06:05.247Z,100.00
2022-08-07T07:09:31.162Z,100.00
2022-08-07T07:12:56.582Z,100.00
2022-08-07T07:16:14.730Z,100.00
2022-08-07T07:19:55.698Z,100.00
2022-08-07T07:24:08.948Z,100.00
2022-08-07T07:30:32.466Z,100.00
2022-08-07T07:33:56.470Z,100.00
2022-08-07T07:37:21.430Z,100.00
2022-08-07T07:43:48.220Z,100.00
2022-08-07T07:47:11.909Z,100.00
2022-08-07T07:53:51.738Z,97.08
2022-08-07T07:57:07.795Z,94.88
2022-08-07T08:00:31.237Z,94.21
2022-08-07T08:06:53.684Z,92.76
2022-08-07T08:14:06.866Z,90.64
2022-08-07T08:17:57.460Z,89.75
2022-08-07T08:28:04.706Z,88.25
2022-08-07T08:31:30.036Z,86.84
2022-08-07T08:34:34.684Z,86.34
2022-08-07T08:38:01.736Z,85.12
2022-08-07T08:41:17.736Z,84.82
2022-08-07T08:44:51.673Z,83.03
2022-08-07T08:52:12.370Z,80.76
2022-08-07T08:54:47.813Z,81.41
2022-08-07T08:58:08.614Z,80.61
2022-08-07T09:01:29.657Z,81.13
2022-08-07T09:04:51.369Z,79.67
2022-08-07T09:08:12.440Z,75.01
2022-08-07T09:11:50.849Z,73.83
2022-08-07T09:14:58.757Z,73.34
2022-08-07T09:18:25.747Z,70.57
2022-08-07T09:22:23.219Z,72.72
2022-08-07T09:25:14.526Z,70.30
2022-08-07T09:30:04.426Z,70.53
2022-08-07T09:31:49.953Z,67.88
2022-08-07T09:36:00.996Z,69.70
2022-08-07T09:38:30.273Z,69.35
2022-08-07T09:41:58.843Z,70.27
2022-08-07T09:47:25.318Z,71.54
2022-08-07T09:48:55.967Z,71.96
2022-08-07T09:52:15.877Z,72.13
2022-08-07T09:56:02.754Z,73.08
2022-08-07T09:59:14.963Z,72.46
2022-08-07T10:04:03.322Z,73.24
2022-08-07T10:06:27.583Z,70.06
2022-08-07T10:10:06.313Z,70.22
2022-08-07T10:14:00.180Z,71.29
2022-08-07T10:17:17.088Z,69.61
2022-08-07T10:20:39.539Z,71.37
2022-08-07T10:24:08.804Z,66.86
2022-08-07T10:27:46.228Z,66.31
2022-08-07T10:31:02.680Z,62.78
2022-08-07T10:34:32.276Z,59.45
2022-08-07T10:38:09.619Z,57.65
2022-08-07T10:41:13.666Z,55.88
2022-08-07T10:44:37.702Z,59.37
2022-08-07T10:47:59.891Z,55.24
2022-08-07T10:51:16.815Z,54.99
2022-08-07T10:54:40.982Z,53.15
2022-08-07T10:58:00.128Z,55.28
2022-08-07T11:01:35.843Z,53.52
2022-08-07T11:05:10.286Z,56.71
2022-08-07T11:08:30.273Z,57.33
2022-08-07T11:11:51.885Z,56.91
2022-08-07T11:15:14.563Z,59.65
2022-08-07T11:18:29.331Z,60.97
2022-08-07T11:21:49.703Z,61.43
2022-08-07T11:25:10.364Z,60.83
2022-08-07T11:28:28.219Z,61.74
2022-08-07T11:31:48.304Z,62.68
2022-08-07T11:35:05.637Z,61.11
2022-08-07T11:38:28.226Z,64.41
2022-08-07T11:42:01.596Z,64.55
2022-08-07T11:45:06.320Z,65.59
2022-08-07T11:48:58.908Z,66.77
2022-08-07T11:52:11.817Z,65.28
2022-08-07T11:56:24.861Z,66.34
2022-08-07T11:58:57.010Z,69.95
2022-08-07T12:02:30.471Z,66.18
2022-08-07T12:05:48.968Z,65.08
2022-08-07T12:09:05.548Z,66.36
2022-08-07T12:12:24.371Z,65.73
2022-08-07T12:16:05.787Z,67.97
2022-08-07T12:18:57.895Z,68.28
2022-08-07T12:22:38.654Z,67.84
2022-08-07T12:26:05.699Z,65.41
2022-08-07T12:29:12.439Z,67.51
2022-08-07T12:32:31.961Z,68.08
2022-08-07T12:35:48.194Z,66.42
2022-08-07T12:39:00.919Z,65.50
2022-08-07T12:42:16.098Z,64.93
2022-08-07T12:45:33.427Z,64.32
2022-08-07T12:48:57.826Z,63.26
2022-08-07T12:52:19.209Z,61.16
2022-08-07T12:55:41.327Z,61.11
2022-08-07T12:58:58.030Z,61.97
2022-08-07T13:02:15.134Z,63.94
2022-08-07T13:06:03.356Z,61.06
2022-08-07T13:10:10.089Z,62.87
2022-08-07T13:12:23.773Z,59.06
2022-08-07T13:15:43.827Z,59.15
2022-08-07T13:19:05.404Z,59.46
2022-08-07T13:22:28.007Z,61.14
2022-08-07T13:25:44.736Z,57.86
2022-08-07T13:29:08.591Z,59.31
2022-08-07T13:32:31.611Z,57.65
2022-08-07T13:36:00.416Z,58.20
2022-08-07T13:39:17.841Z,60.12
2022-08-07T13:42:28.680Z,57.02
2022-08-07T13:46:10.905Z,61.38
2022-08-07T13:49:08.700Z,59.58
2022-08-07T13:52:32.194Z,57.63
2022-08-07T13:55:37.174Z,59.59
2022-08-07T13:59:12.072Z,58.58
2022-08-07T14:02:29.617Z,58.74
2022-08-07T14:05:41.079Z,58.65
2022-08-07T14:08:56.909Z,57.90
2022-08-07T14:12:13.883Z,58.13
2022-08-07T14:15:37.051Z,61.35
2022-08-07T14:18:56.966Z,59.15
2022-08-07T14:22:34.210Z,59.70
2022-08-07T14:25:39.590Z,58.74
2022-08-07T14:28:57.373Z,57.81
2022-08-07T14:32:01.857Z,57.04
2022-08-07T14:35:43.178Z,58.15
2022-08-07T14:38:36.210Z,57.28
2022-08-07T14:42:20.357Z,56.99
2022-08-07T14:45:21.457Z,56.76
2022-08-07T14:48:27.374Z,58.43
2022-08-07T14:52:04.355Z,58.84
2022-08-07T14:54:56.990Z,58.97
2022-08-07T14:58:24.758Z,61.75
2022-08-07T15:01:42.436Z,58.43
2022-08-07T15:04:53.210Z,56.78
2022-08-07T15:08:08.851Z,54.54
2022-08-07T15:11:50.937Z,53.57
2022-08-07T15:14:56.092Z,56.67
2022-08-07T15:18:06.040Z,54.97
2022-08-07T15:25:14.890Z,54.92
2022-08-07T15:28:32.318Z,56.32
2022-08-07T15:34:35.809Z,55.40
2022-08-07T15:38:04.670Z,55.42
2022-08-07T15:41:22.981Z,57.36
2022-08-07T15:44:23.850Z,53.63
2022-08-07T15:47:59.845Z,54.05
2022-08-07T15:51:08.217Z,55.77
2022-08-07T15:54:13.547Z,52.83
2022-08-07T15:57:39.603Z,52.73
2022-08-07T16:00:46.272Z,52.98
2022-08-07T16:04:03.966Z,53.91
2022-08-07T16:08:29.104Z,54.77
2022-08-07T16:10:37.488Z,53.04
2022-08-07T16:14:03.353Z,54.69
2022-08-07T16:18:01.624Z,55.75
2022-08-07T16:21:57.064Z,57.07
2022-08-07T16:24:34.244Z,56.18
2022-08-07T16:27:40.013Z,57.21
2022-08-07T16:30:59.266Z,54.99
2022-08-07T16:34:18.340Z,56.56
2022-08-07T16:38:11.273Z,57.38
2022-08-07T16:42:18.383Z,57.67
2022-08-07T16:46:40.336Z,58.80
2022-08-07T16:50:28.672Z,58.15
2022-08-07T16:54:06.471Z,58.66
2022-08-07T16:58:00.917Z,59.91
2022-08-07T17:00:40.810Z,60.03
2022-08-07T17:03:59.648Z,58.52
2022-08-07T17:07:28.519Z,60.83
2022-08-07T17:10:54.553Z,60.38
2022-08-07T17:14:18.526Z,60.44
2022-08-07T17:17:46.636Z,61.09
2022-08-07T17:21:00.795Z,61.47
2022-08-07T17:24:31.063Z,61.16
2022-08-07T17:27:51.848Z,62.64
2022-08-07T17:31:16.675Z,63.84
2022-08-07T17:34:35.512Z,65.39
2022-08-07T17:38:09.460Z,66.48
2022-08-07T17:42:02.580Z,67.20
2022-08-07T17:44:33.827Z,66.96
2022-08-07T17:47:54.125Z,67.30
2022-08-07T17:51:12.573Z,67.74
2022-08-07T17:54:53.049Z,68.83
2022-08-07T17:58:01.390Z,69.50
2022-08-07T18:01:21.577Z,70.57
2022-08-07T18:04:48.568Z,70.25
2022-08-07T18:08:16.374Z,71.92
2022-08-07T18:12:17.810Z,73.77
2022-08-07T18:14:53.142Z,75.69
2022-08-07T18:18:47.319Z,74.54
2022-08-07T18:22:00.469Z,74.65
2022-08-07T18:25:19.087Z,75.53
2022-08-07T18:31:55.429Z,77.89
2022-08-07T18:35:51.863Z,77.14
2022-08-07T18:40:07.973Z,76.71
2022-08-07T18:42:43.659Z,77.91
2022-08-07T18:46:25.978Z,78.92
2022-08-07T18:50:33.151Z,82.27
2022-08-07T18:53:12.469Z,79.64
2022-08-07T18:56:39.365Z,81.38
2022-08-07T19:00:34.389Z,83.80
2022-08-07T19:03:43.858Z,84.61
2022-08-07T19:10:22.369Z,82.95
2022-08-07T19:13:54.578Z,85.77
2022-08-07T19:17:54.494Z,86.10
2022-08-07T19:24:07.193Z,86.81
2022-08-07T19:28:57.515Z,88.37
2022-08-07T19:30:56.401Z,89.13
2022-08-07T19:34:00.587Z,89.89
2022-08-07T19:37:17.920Z,90.12
2022-08-07T19:40:34.533Z,89.05
2022-08-07T19:43:54.511Z,87.43
2022-08-07T19:47:11.869Z,88.62
2022-08-07T19:50:44.438Z,88.21
2022-08-07T19:54:31.045Z,85.73
2022-08-07T19:58:02.615Z,87.66
2022-08-07T20:00:29.077Z,85.21
2022-08-07T20:03:50.249Z,86.16
2022-08-07T20:14:33.877Z,87.01
2022-08-07T20:18:01.402Z,87.58
2022-08-07T20:21:21.539Z,85.70
2022-08-07T20:24:38.816Z,86.59
2022-08-07T20:27:58.579Z,86.50
2022-08-07T20:32:03.846Z,88.84
2022-08-07T20:35:26.421Z,88.39
2022-08-07T20:38:53.324Z,89.69
2022-08-07T20:41:55.542Z,91.30
2022-08-07T20:45:33.457Z,91.52
2022-08-07T20:48:30.840Z,90.90
2022-08-07T20:51:50.768Z,92.05
2022-08-07T20:55:05.623Z,91.93
2022-08-07T20:58:26.547Z,93.57
2022-08-07T21:01:45.180Z,95.28
2022-08-07T21:04:50.322Z,94.75
2022-08-07T21:08:06.757Z,93.76
2022-08-07T21:11:28.968Z,92.41
2022-08-07T21:14:53.322Z,93.34
2022-08-07T21:18:28.041Z,91.57
2022-08-07T21:21:16.237Z,93.50
2022-08-07T21:24:33.189Z,93.35
2022-08-07T21:27:55.418Z,92.83
2022-08-07T21:31:31.198Z,92.67
2022-08-07T21:34:46.140Z,92.50
2022-08-07T21:38:00.140Z,93.55
2022-08-07T21:41:19.281Z,91.94
2022-08-07T21:44:40.268Z,91.95
2022-08-07T21:48:00.551Z,92.17
2022-08-07T21:51:25.033Z,91.61
2022-08-07T21:54:48.507Z,91.75
2022-08-07T21:58:12.071Z,91.06
2022-08-07T22:02:11.158Z,90.64
2022-08-07T22:04:53.575Z,91.32
2022-08-07T22:08:05.572Z,92.58
2022-08-07T22:11:30.684Z,92.04
2022-08-07T22:14:59.757Z,91.41
2022-08-07T22:18:06.375Z,91.27
2022-08-07T22:21:23.739Z,90.99
2022-08-07T22:24:45.217Z,92.46
2022-08-07T22:28:29.800Z,91.90
2022-08-07T22:31:59.060Z,92.72
2022-08-07T22:34:49.662Z,91.50
2022-08-07T22:38:10.217Z,91.30
2022-08-07T22:41:29.122Z,91.78
2022-08-07T22:44:59.017Z,92.61
2022-08-07T22:48:54.528Z,92.09
2022-08-07T22:52:10.206Z,92.08
2022-08-07T22:55:46.209Z,92.46
2022-08-07T22:59:36.255Z,92.79
2022-08-07T23:03:28.606Z,93.17
2022-08-07T23:07:39.975Z,91.77
2022-08-07T23:10:38.452Z,90.96
2022-08-07T23:14:15.201Z,92.00
2022-08-07T23:17:45.046Z,92.01
2022-08-07T23:21:10.745Z,92.43
2022-08-07T23:24:45.732Z,93.55
2022-08-07T23:28:36.741Z,93.13
2022-08-07T23:34:20.636Z,94.54
2022-08-07T23:35:22.098Z,93.36
2022-08-07T23:38:54.857Z,93.60
2022-08-07T23:42:21.441Z,94.08
2022-08-07T23:46:03.754Z,93.29
2022-08-07T23:49:50.147Z,92.73
2022-08-07T23:52:58.713Z,93.16
2022-08-07T23:56:15.246Z,93.25
